createdAt,value
2018-07-17T00:01:05.858Z,97675.15
2018-07-17T00:03:34.706Z,97677.45
2018-07-17T00:06:03.750Z,97674.79
2018-07-17T00:08:32.744Z,97679.46
2018-07-17T00:11:01.662Z,97675.36
2018-07-17T00:13:30.464Z,97674.58
2018-07-17T00:15:59.396Z,97680.10
2018-07-17T00:18:28.251Z,97688.45
2018-07-17T00:20:57.141Z,97682.77
2018-07-17T00:23:26.191Z,97683.13
2018-07-17T00:25:55.190Z,97686.08
2018-07-17T00:28:24.093Z,97684.92
2018-07-17T00:30:53.088Z,97693.33
2018-07-17T00:33:22.138Z,97695.47
2018-07-17T00:35:51.215Z,97689.58
2018-07-17T00:38:20.181Z,97694.16
2018-07-17T00:40:49.241Z,97689.68
2018-07-17T00:43:18.167Z,97693.00
2018-07-17T00:45:47.078Z,97686.31
2018-07-17T00:48:16.109Z,97686.47
2018-07-17T00:50:45.176Z,97687.77
2018-07-17T00:53:14.398Z,97691.00
2018-07-17T00:55:43.547Z,97692.94
2018-07-17T00:58:12.587Z,97682.67
2018-07-17T01:00:44.571Z,97687.74
2018-07-17T01:03:18.930Z,97684.98
2018-07-17T01:05:53.274Z,97681.31
2018-07-17T01:08:27.393Z,97692.95
2018-07-17T01:11:01.651Z,97690.91
2018-07-17T01:13:39.205Z,97686.59
2018-07-17T01:16:08.289Z,97686.19
2018-07-17T01:18:37.417Z,97685.84
2018-07-17T01:21:06.586Z,97690.94
2018-07-17T01:23:35.706Z,97682.81
2018-07-17T01:26:04.778Z,97683.06
2018-07-17T01:28:33.652Z,97676.06
2018-07-17T01:31:02.549Z,97672.36
2018-07-17T01:33:31.531Z,97676.26
2018-07-17T01:36:00.978Z,97677.92
2018-07-17T01:38:29.982Z,97677.56
2018-07-17T01:40:59.130Z,97679.56
2018-07-17T01:43:28.198Z,97679.94
2018-07-17T01:45:57.121Z,97683.45
2018-07-17T01:48:26.028Z,97683.45
2018-07-17T01:50:55.209Z,97683.15
2018-07-17T01:53:24.123Z,97685.46
2018-07-17T01:55:53.189Z,97689.70
2018-07-17T01:58:22.262Z,97688.86
2018-07-17T02:00:51.591Z,97692.16
2018-07-17T02:03:20.953Z,97683.33
2018-07-17T02:05:50.354Z,97686.77
2018-07-17T02:08:19.577Z,97679.71
2018-07-17T02:10:48.836Z,97682.44
2018-07-17T02:13:18.015Z,97679.83
2018-07-17T02:15:47.056Z,97680.77
2018-07-17T02:18:16.058Z,97685.42
2018-07-17T02:20:45.762Z,97681.56
2018-07-17T02:23:15.170Z,97682.28
2018-07-17T02:25:44.525Z,97685.44
2018-07-17T02:28:13.621Z,97673.41
2018-07-17T02:30:42.794Z,97682.74
2018-07-17T02:33:12.046Z,97677.08
2018-07-17T02:35:41.133Z,97686.95
2018-07-17T02:38:10.149Z,97681.15
2018-07-17T02:40:39.101Z,97677.77
2018-07-17T02:43:08.061Z,97687.73
2018-07-17T02:45:37.230Z,97685.72
2018-07-17T02:48:06.115Z,97693.89
2018-07-17T02:50:35.182Z,97691.95
2018-07-17T02:53:04.142Z,97688.23
2018-07-17T02:55:33.217Z,97691.16
2018-07-17T02:58:02.193Z,97694.11
2018-07-17T03:00:31.217Z,97697.05
2018-07-17T03:03:00.085Z,97687.95
2018-07-17T03:05:28.998Z,97694.11
2018-07-17T03:07:58.070Z,97692.97
2018-07-17T03:10:27.041Z,97689.98
2018-07-17T03:12:56.007Z,97695.78
2018-07-17T03:15:25.697Z,97704.09
2018-07-17T03:17:54.673Z,97707.25
2018-07-17T03:20:23.590Z,97709.19
2018-07-17T03:22:52.564Z,97711.25
2018-07-17T03:25:21.491Z,97708.41
2018-07-17T03:27:50.753Z,97716.58
2018-07-17T03:30:19.830Z,97711.38
2018-07-17T03:32:48.919Z,97723.52
2018-07-17T03:35:18.043Z,97723.30
2018-07-17T03:37:47.018Z,97724.34
2018-07-17T03:40:16.084Z,97724.69
2018-07-17T03:42:52.457Z,97724.13
2018-07-17T03:45:21.590Z,97728.77
2018-07-17T03:47:50.502Z,97728.77
2018-07-17T03:50:19.621Z,97732.06
2018-07-17T03:52:48.715Z,97735.70
2018-07-17T03:55:18.188Z,97738.75
2018-07-17T03:57:47.532Z,97747.03
2018-07-17T04:00:16.883Z,97746.59
2018-07-17T04:02:46.049Z,97748.84
2018-07-17T04:05:15.222Z,97750.31
2018-07-17T04:07:44.430Z,97749.75
2018-07-17T04:10:13.859Z,97746.13
2018-07-17T04:12:43.257Z,97741.47
2018-07-17T04:15:12.417Z,97746.70
2018-07-17T04:17:41.489Z,97749.07
2018-07-17T04:20:10.760Z,97754.30
2018-07-17T04:22:40.105Z,97756.45
2018-07-17T04:25:09.382Z,97752.94
2018-07-17T04:27:38.553Z,97754.30
2018-07-17T04:30:07.644Z,97764.27
2018-07-17T04:32:36.648Z,97764.84
2018-07-17T04:35:05.704Z,97761.20
2018-07-17T04:37:34.855Z,97753.83
2018-07-17T04:40:04.180Z,97757.69
2018-07-17T04:42:33.203Z,97760.06
2018-07-17T04:45:02.752Z,97763.92
2018-07-17T04:47:32.110Z,97763.13
2018-07-17T04:50:01.184Z,97751.32
2018-07-17T04:52:30.280Z,97763.80
2018-07-17T04:54:59.245Z,97768.11
2018-07-17T04:57:28.168Z,97765.60
2018-07-17T04:59:57.305Z,97764.23
2018-07-17T05:02:26.314Z,97768.31
2018-07-17T05:04:55.753Z,97769.89
2018-07-17T05:07:24.859Z,97770.42
2018-07-17T05:09:54.036Z,97779.16
2018-07-17T05:12:23.070Z,97777.22
2018-07-17T05:14:52.249Z,97776.86
2018-07-17T05:17:21.734Z,97777.09
2018-07-17T05:19:50.803Z,97779.58
2018-07-17T05:22:19.949Z,97783.47
2018-07-17T05:24:49.170Z,97786.85
2018-07-17T05:27:18.394Z,97791.37
2018-07-17T05:29:47.423Z,97797.23
2018-07-17T05:32:16.542Z,97791.77
2018-07-17T05:34:45.878Z,97800.37
2018-07-17T05:37:15.189Z,97796.78
2018-07-17T05:39:44.556Z,97800.52
2018-07-17T05:42:13.765Z,97798.63
2018-07-17T05:44:42.842Z,97797.86
2018-07-17T05:47:12.021Z,97798.49
2018-07-17T05:49:41.216Z,97796.09
2018-07-17T05:52:10.509Z,97795.84
2018-07-17T05:54:39.591Z,97799.97
2018-07-17T05:57:08.950Z,97798.11
2018-07-17T05:59:37.900Z,97794.42
2018-07-17T06:02:08.197Z,97789.81
2018-07-17T06:04:37.484Z,97790.57
2018-07-17T06:07:06.641Z,97792.44
2018-07-17T06:09:35.688Z,97788.30
2018-07-17T06:12:04.862Z,97786.38
2018-07-17T06:14:34.175Z,97783.82
2018-07-17T06:17:03.352Z,97783.09
2018-07-17T06:19:32.569Z,97781.42
2018-07-17T06:22:01.759Z,97782.80
2018-07-17T06:24:31.021Z,97785.12
2018-07-17T06:27:00.129Z,97779.59
2018-07-17T06:29:29.261Z,97782.55
2018-07-17T06:31:58.592Z,97785.77
2018-07-17T06:34:27.653Z,97781.30
2018-07-17T06:36:56.874Z,97786.20
2018-07-17T06:39:26.072Z,97776.49
2018-07-17T06:41:54.922Z,97772.02
2018-07-17T06:44:23.949Z,97778.78
2018-07-17T06:46:53.370Z,97780.22
2018-07-17T06:49:22.617Z,97775.10
2018-07-17T06:51:51.609Z,97773.65
2018-07-17T06:54:20.885Z,97769.19
2018-07-17T06:56:50.040Z,97763.67
2018-07-17T06:59:19.058Z,97768.09
2018-07-17T07:01:48.165Z,97764.75
2018-07-17T07:04:17.085Z,97767.86
2018-07-17T07:06:46.111Z,97765.56
2018-07-17T07:09:15.146Z,97768.65
2018-07-17T07:11:44.513Z,97770.20
2018-07-17T07:14:13.729Z,97772.65
2018-07-17T07:16:42.761Z,97771.61
2018-07-17T07:19:11.730Z,97766.75
2018-07-17T07:21:41.141Z,97765.34
2018-07-17T07:24:10.596Z,97769.14
2018-07-17T07:26:39.657Z,97773.09
2018-07-17T07:29:08.662Z,97769.70
2018-07-17T07:31:37.814Z,97780.59
2018-07-17T07:34:06.766Z,97772.06
2018-07-17T07:36:35.704Z,97771.02
2018-07-17T07:39:06.387Z,97775.27
2018-07-17T07:41:35.567Z,97776.88
2018-07-17T07:44:04.787Z,97775.37
2018-07-17T07:46:34.387Z,97779.57
2018-07-17T07:49:03.719Z,97774.22
2018-07-17T07:51:32.914Z,97782.47
2018-07-17T07:54:02.102Z,97781.50
2018-07-17T07:56:31.206Z,97776.95
2018-07-17T07:59:00.171Z,97781.07
2018-07-17T08:01:29.155Z,97777.68
2018-07-17T08:03:58.333Z,97778.92
2018-07-17T08:06:27.646Z,97781.02
2018-07-17T08:08:56.918Z,97779.78
2018-07-17T08:11:26.090Z,97776.52
2018-07-17T08:13:55.174Z,97774.27
2018-07-17T08:16:24.142Z,97771.61
2018-07-17T08:18:53.154Z,97770.86
2018-07-17T08:21:21.944Z,97780.58
2018-07-17T08:23:50.796Z,97776.27
2018-07-17T08:26:19.717Z,97775.75
2018-07-17T08:28:48.634Z,97772.88
2018-07-17T08:31:17.561Z,97766.84
2018-07-17T08:33:46.526Z,97774.14
2018-07-17T08:36:15.559Z,97770.47
2018-07-17T08:38:44.442Z,97771.72
2018-07-17T08:41:13.507Z,97766.95
2018-07-17T08:43:43.053Z,97767.99
2018-07-17T08:46:12.034Z,97772.72
2018-07-17T08:48:41.201Z,97774.32
2018-07-17T08:51:10.018Z,97774.73
2018-07-17T08:53:39.012Z,97773.73
2018-07-17T08:56:07.962Z,97774.33
2018-07-17T08:58:37.051Z,97778.27
2018-07-17T09:01:05.830Z,97773.73
2018-07-17T09:03:34.589Z,97781.03
2018-07-17T09:06:03.559Z,97780.24
2018-07-17T09:08:32.490Z,97782.22
2018-07-17T09:11:01.448Z,97776.70
2018-07-17T09:13:30.253Z,97773.90
2018-07-17T09:15:59.246Z,97777.83
2018-07-17T09:18:28.489Z,97782.41
2018-07-17T09:20:57.337Z,97776.05
2018-07-17T09:23:26.554Z,97777.78
2018-07-17T09:25:56.178Z,97771.86
2018-07-17T09:28:25.000Z,97772.20
2018-07-17T09:31:00.532Z,97772.37
2018-07-17T09:33:38.599Z,97771.30
2018-07-17T09:36:08.652Z,97771.78
2018-07-17T09:38:39.354Z,97774.50
2018-07-17T09:41:08.550Z,97771.31
2018-07-17T09:43:37.271Z,97771.12
2018-07-17T09:46:06.229Z,97762.73
2018-07-17T09:48:35.044Z,97755.67
2018-07-17T09:51:03.809Z,97760.58
2018-07-17T09:53:32.711Z,97757.20
2018-07-17T09:56:02.380Z,97755.25
2018-07-17T09:58:31.738Z,97755.50
2018-07-17T10:01:05.758Z,97758.27
2018-07-17T10:03:34.753Z,97755.70
2018-07-17T10:06:03.780Z,97753.71
2018-07-17T10:08:32.461Z,97749.98
2018-07-17T10:11:01.206Z,97747.53
2018-07-17T10:13:30.455Z,97748.50
2018-07-17T10:15:59.345Z,97752.39
2018-07-17T10:18:29.782Z,97745.42
2018-07-17T10:20:58.622Z,97750.94
2018-07-17T10:23:27.997Z,97741.23
2018-07-17T10:25:57.091Z,97738.72
2018-07-17T10:28:25.889Z,97730.37
2018-07-17T10:30:54.822Z,97741.55
2018-07-17T10:33:23.706Z,97738.33
2018-07-17T10:35:52.518Z,97741.11
2018-07-17T10:38:21.534Z,97743.75
2018-07-17T10:40:51.502Z,97737.85
2018-07-17T10:43:20.551Z,97741.55
2018-07-17T10:45:49.477Z,97731.86
2018-07-17T10:48:18.816Z,97729.78
2018-07-17T10:50:47.733Z,97734.05
2018-07-17T10:53:16.761Z,97727.46
2018-07-17T10:55:45.578Z,97723.55
2018-07-17T10:58:14.482Z,97724.05
2018-07-17T11:00:43.292Z,97727.61
2018-07-17T11:03:12.166Z,97720.06
2018-07-17T11:05:41.071Z,97718.36
2018-07-17T11:08:10.141Z,97725.20
2018-07-17T11:10:38.895Z,97717.07
2018-07-17T11:13:08.090Z,97721.84
2018-07-17T11:15:37.456Z,97705.22
2018-07-17T11:18:06.492Z,97704.23
2018-07-17T11:20:35.301Z,97705.29
2018-07-17T11:23:04.200Z,97699.29
2018-07-17T11:25:33.300Z,97694.77
2018-07-17T11:28:02.419Z,97688.77
2018-07-17T11:30:31.471Z,97690.31
2018-07-17T11:33:00.346Z,97691.59
2018-07-17T11:35:29.339Z,97685.88
2018-07-17T11:37:58.140Z,97668.01
2018-07-17T11:40:27.034Z,97686.04
2018-07-17T11:42:55.937Z,97672.62
2018-07-17T11:45:24.672Z,97672.28
2018-07-17T11:47:53.589Z,97668.94
2018-07-17T11:50:22.360Z,97669.46
2018-07-17T11:52:51.181Z,97661.34
2018-07-17T11:55:20.099Z,97657.41
2018-07-17T11:57:49.041Z,97654.38
2018-07-17T12:00:19.815Z,97653.94
2018-07-17T12:02:48.590Z,97655.89
2018-07-17T12:05:17.736Z,97660.56
2018-07-17T12:07:46.482Z,97660.16
2018-07-17T12:10:15.487Z,97670.27
2018-07-17T12:12:44.374Z,97657.14
2018-07-17T12:15:13.122Z,97651.92
2018-07-17T12:17:42.275Z,97644.40
2018-07-17T12:20:11.395Z,97661.95
2018-07-17T12:22:40.634Z,97640.30
2018-07-17T12:25:09.629Z,97645.50
2018-07-17T12:27:38.378Z,97640.16
2018-07-17T12:30:07.723Z,97636.56
2018-07-17T12:32:38.524Z,97629.89
2018-07-17T12:35:09.193Z,97620.23
2018-07-17T12:37:38.287Z,97633.97
2018-07-17T12:40:08.067Z,97626.06
2018-07-17T12:42:37.322Z,97630.38
2018-07-17T12:45:06.466Z,97638.56
2018-07-17T12:47:35.382Z,97620.62
2018-07-17T12:50:04.929Z,97624.97
2018-07-17T12:52:33.789Z,97618.92
2018-07-17T12:55:03.110Z,97629.06
2018-07-17T12:57:32.403Z,97611.91
2018-07-17T13:00:02.051Z,97614.76
2018-07-17T13:02:31.113Z,97616.22
2018-07-17T13:05:00.190Z,97633.80
2018-07-17T13:07:36.146Z,97611.85
2018-07-17T13:10:06.564Z,97617.63
2018-07-17T13:12:35.434Z,97614.40
2018-07-17T13:15:04.712Z,97625.00
2018-07-17T13:17:34.508Z,97612.17
2018-07-17T13:20:03.990Z,97615.31
2018-07-17T13:22:33.098Z,97604.30
2018-07-17T13:25:02.105Z,97594.33
2018-07-17T13:27:31.175Z,97607.23
2018-07-17T13:29:59.971Z,97601.43
2018-07-17T13:32:28.926Z,97606.66
2018-07-17T13:34:57.874Z,97606.17
2018-07-17T13:37:26.735Z,97608.80
2018-07-17T13:39:55.501Z,97605.58
2018-07-17T13:42:24.395Z,97603.84
2018-07-17T13:44:53.439Z,97600.27
2018-07-17T13:47:22.159Z,97604.30
2018-07-17T13:49:51.189Z,97603.64
2018-07-17T13:52:20.310Z,97610.33
2018-07-17T13:54:49.504Z,97597.30
2018-07-17T13:57:18.374Z,97591.05
2018-07-17T13:59:47.338Z,97595.67
2018-07-17T14:02:16.205Z,97589.27
2018-07-17T14:04:45.055Z,97581.01
2018-07-17T14:07:13.946Z,97597.98
2018-07-17T14:09:42.901Z,97592.61
2018-07-17T14:12:11.718Z,97579.73
2018-07-17T14:14:40.798Z,97579.42
2018-07-17T14:17:09.642Z,97564.92
2018-07-17T14:19:38.747Z,97584.61
2018-07-17T14:22:07.689Z,97583.33
2018-07-17T14:24:36.503Z,97570.99
2018-07-17T14:27:05.578Z,97577.94
2018-07-17T14:29:34.680Z,97583.97
2018-07-17T14:32:03.794Z,97586.36
2018-07-17T14:34:32.802Z,97571.34
2018-07-17T14:37:01.788Z,97580.62
2018-07-17T14:39:30.832Z,97572.89
2018-07-17T14:41:59.744Z,97577.08
2018-07-17T14:44:28.747Z,97579.33
2018-07-17T14:46:57.567Z,97574.81
2018-07-17T14:49:26.445Z,97571.17
2018-07-17T14:51:55.354Z,97571.27
2018-07-17T14:54:24.215Z,97578.72
2018-07-17T14:56:53.093Z,97577.57
2018-07-17T14:59:22.060Z,97585.00
2018-07-17T15:01:51.085Z,97574.94
2018-07-17T15:04:19.853Z,97586.53
2018-07-17T15:06:48.923Z,97598.38
2018-07-17T15:09:17.666Z,97589.84
2018-07-17T15:11:46.484Z,97590.43
2018-07-17T15:14:15.438Z,97588.24
2018-07-17T15:16:44.270Z,97583.95
2018-07-17T15:19:13.193Z,97587.72
2018-07-17T15:21:41.981Z,97592.52
2018-07-17T15:24:11.195Z,97595.07
2018-07-17T15:26:40.417Z,97588.76
2018-07-17T15:29:09.102Z,97591.13
2018-07-17T15:31:38.095Z,97592.30
2018-07-17T15:34:07.185Z,97602.80
2018-07-17T15:36:36.260Z,97591.84
2018-07-17T15:39:08.190Z,97595.84
2018-07-17T15:41:36.955Z,97600.55
2018-07-17T15:44:05.941Z,97594.95
2018-07-17T15:46:35.910Z,97593.05
2018-07-17T15:49:04.722Z,97587.77
2018-07-17T15:51:33.439Z,97598.06
2018-07-17T15:54:02.728Z,97599.73
2018-07-17T15:56:31.527Z,97598.05
2018-07-17T15:59:00.335Z,97599.16
2018-07-17T16:01:29.315Z,97599.78
2018-07-17T16:03:58.197Z,97604.86
2018-07-17T16:06:27.024Z,97599.67
2018-07-17T16:08:55.870Z,97605.52
2018-07-17T16:11:24.811Z,97612.84
2018-07-17T16:13:53.929Z,97606.94
2018-07-17T16:16:22.672Z,97604.80
2018-07-17T16:18:51.644Z,97593.91
2018-07-17T16:21:20.564Z,97604.32
2018-07-17T16:23:49.509Z,97604.44
2018-07-17T16:26:18.603Z,97593.88
2018-07-17T16:28:47.666Z,97596.11
2018-07-17T16:31:16.761Z,97593.20
2018-07-17T16:33:45.589Z,97597.11
2018-07-17T16:36:14.634Z,97591.74
2018-07-17T16:38:43.710Z,97590.81
2018-07-17T16:41:12.874Z,97591.77
2018-07-17T16:43:42.007Z,97589.73
2018-07-17T16:46:10.797Z,97590.17
2018-07-17T16:48:39.985Z,97587.46
2018-07-17T16:51:08.895Z,97590.05
2018-07-17T16:53:37.808Z,97597.27
2018-07-17T16:56:06.981Z,97591.02
2018-07-17T16:58:35.766Z,97587.50
2018-07-17T17:01:04.797Z,97589.73
2018-07-17T17:03:33.771Z,97591.27
2018-07-17T17:06:03.003Z,97584.18
2018-07-17T17:08:31.936Z,97590.84
2018-07-17T17:11:01.004Z,97605.16
2018-07-17T17:13:29.864Z,97588.95
2018-07-17T17:15:58.838Z,97594.28
2018-07-17T17:18:28.111Z,97598.84
2018-07-17T17:20:56.971Z,97602.09
2018-07-17T17:23:25.765Z,97597.48
2018-07-17T17:25:54.676Z,97607.18
2018-07-17T17:28:23.547Z,97601.66
2018-07-17T17:30:52.366Z,97608.39
2018-07-17T17:33:21.068Z,97602.26
2018-07-17T17:35:49.976Z,97605.47
2018-07-17T17:38:18.730Z,97598.11
2018-07-17T17:40:47.613Z,97608.23
2018-07-17T17:43:16.711Z,97606.45
2018-07-17T17:45:45.484Z,97612.30
2018-07-17T17:48:14.472Z,97611.26
2018-07-17T17:50:43.532Z,97613.38
2018-07-17T17:53:12.233Z,97623.27
2018-07-17T17:55:41.470Z,97622.33
2018-07-17T17:58:10.561Z,97636.30
2018-07-17T18:00:39.552Z,97635.42
2018-07-17T18:03:08.394Z,97636.44
2018-07-17T18:05:37.329Z,97640.53
2018-07-17T18:08:06.232Z,97643.77
2018-07-17T18:10:34.995Z,97648.72
2018-07-17T18:13:03.956Z,97656.56
2018-07-17T18:15:32.862Z,97654.45
2018-07-17T18:18:02.019Z,97664.56
2018-07-17T18:20:31.316Z,97665.91
2018-07-17T18:23:00.185Z,97671.09
2018-07-17T18:25:29.056Z,97667.33
2018-07-17T18:27:57.881Z,97674.19
2018-07-17T18:30:26.678Z,97672.11
2018-07-17T18:32:55.671Z,97679.78
2018-07-17T18:35:24.449Z,97673.02
2018-07-17T18:37:53.297Z,97678.60
2018-07-17T18:40:22.090Z,97678.98
2018-07-17T18:42:50.782Z,97679.72
2018-07-17T18:45:19.940Z,97686.03
2018-07-17T18:47:48.966Z,97681.72
2018-07-17T18:50:17.659Z,97684.16
2018-07-17T18:52:46.517Z,97685.41
2018-07-17T18:55:15.264Z,97685.23
2018-07-17T18:57:44.060Z,97690.81
2018-07-17T19:00:13.132Z,97692.41
2018-07-17T19:02:42.056Z,97691.53
2018-07-17T19:05:10.974Z,97697.74
2018-07-17T19:07:39.767Z,97697.20
2018-07-17T19:10:08.757Z,97697.47
2018-07-17T19:12:37.514Z,97702.22
2018-07-17T19:15:06.599Z,97699.53
2018-07-17T19:17:35.571Z,97704.31
2018-07-17T19:20:04.896Z,97715.42
2018-07-17T19:22:34.312Z,97711.53
2018-07-17T19:25:03.409Z,97712.69
2018-07-17T19:27:32.239Z,97723.92
2018-07-17T19:30:01.191Z,97720.19
2018-07-17T19:32:30.079Z,97721.57
2018-07-17T19:34:59.079Z,97727.36
2018-07-17T19:37:27.973Z,97738.16
2018-07-17T19:39:56.848Z,97734.45
2018-07-17T19:42:25.571Z,97736.44
2018-07-17T19:44:54.353Z,97742.39
2018-07-17T19:47:23.268Z,97741.01
2018-07-17T19:49:52.213Z,97742.59
2018-07-17T19:52:21.090Z,97738.64
2018-07-17T19:54:50.375Z,97741.20
2018-07-17T19:57:19.267Z,97741.01
2018-07-17T19:59:48.558Z,97741.98
2018-07-17T20:02:17.610Z,97743.97
2018-07-17T20:04:46.781Z,97742.02
2018-07-17T20:07:15.887Z,97746.36
2018-07-17T20:09:44.878Z,97747.93
2018-07-17T20:12:13.790Z,97755.03
2018-07-17T20:14:42.531Z,97752.46
2018-07-17T20:17:11.881Z,97753.08
2018-07-17T20:19:40.997Z,97755.05
2018-07-17T20:22:09.968Z,97747.72
2018-07-17T20:24:39.001Z,97763.70
2018-07-17T20:27:07.876Z,97756.00
2018-07-17T20:29:36.977Z,97753.83
2018-07-17T20:32:06.426Z,97759.95
2018-07-17T20:34:35.273Z,97765.26
2018-07-17T20:37:04.234Z,97760.91
2018-07-17T20:39:34.264Z,97770.77
2018-07-17T20:42:03.563Z,97767.62
2018-07-17T20:44:32.342Z,97767.25
2018-07-17T20:47:01.202Z,97769.60
2018-07-17T20:49:30.231Z,97766.06
2018-07-17T20:51:59.101Z,97768.03
2018-07-17T20:54:28.365Z,97770.18
2018-07-17T20:56:57.234Z,97766.45
2018-07-17T20:59:26.278Z,97770.39
2018-07-17T21:01:55.207Z,97767.44
2018-07-17T21:04:24.014Z,97769.97
2018-07-17T21:06:52.979Z,97781.39
2018-07-17T21:09:21.759Z,97774.49
2018-07-17T21:11:50.772Z,97785.12
2018-07-17T21:14:19.741Z,97790.22
2018-07-17T21:16:48.727Z,97788.45
2018-07-17T21:19:17.947Z,97791.40
2018-07-17T21:21:46.914Z,97793.95
2018-07-17T21:24:15.725Z,97791.55
2018-07-17T21:26:44.561Z,97794.90
2018-07-17T21:29:13.378Z,97803.73
2018-07-17T21:31:42.194Z,97802.56
2018-07-17T21:34:10.966Z,97806.48
2018-07-17T21:36:40.148Z,97808.82
2018-07-17T21:39:10.406Z,97810.76
2018-07-17T21:41:39.476Z,97814.69
2018-07-17T21:44:08.544Z,97814.07
2018-07-17T21:46:37.486Z,97823.28
2018-07-17T21:49:06.696Z,97822.50
2018-07-17T21:51:35.805Z,97825.61
2018-07-17T21:54:05.002Z,97828.80
2018-07-17T21:56:33.858Z,97834.22
2018-07-17T21:59:02.576Z,97829.11
2018-07-17T22:01:31.454Z,97822.50
2018-07-17T22:04:00.496Z,97837.00
2018-07-17T22:06:29.354Z,97820.69
2018-07-17T22:08:58.126Z,97827.88
2018-07-17T22:11:26.935Z,97821.82
2018-07-17T22:13:55.793Z,97827.31
2018-07-17T22:16:24.911Z,97824.96
2018-07-17T22:18:54.177Z,97827.81
2018-07-17T22:21:23.305Z,97833.52
2018-07-17T22:23:52.341Z,97832.77
2018-07-17T22:26:21.066Z,97835.86
2018-07-17T22:28:50.086Z,97835.27
2018-07-17T22:31:18.915Z,97840.66
2018-07-17T22:33:48.186Z,97840.28
2018-07-17T22:36:17.246Z,97835.87
2018-07-17T22:38:46.468Z,97841.70
2018-07-17T22:41:15.371Z,97846.75
2018-07-17T22:43:44.071Z,97851.71
2018-07-17T22:46:12.893Z,97857.48
2018-07-17T22:48:41.586Z,97855.93
2018-07-17T22:51:10.539Z,97851.72
2018-07-17T22:53:39.488Z,97859.72
2018-07-17T22:56:08.223Z,97852.45
2018-07-17T22:58:36.921Z,97853.41
2018-07-17T23:01:05.716Z,97850.15
2018-07-17T23:03:34.482Z,97856.44
2018-07-17T23:06:03.777Z,97850.53
2018-07-17T23:08:32.788Z,97856.39
2018-07-17T23:11:02.121Z,97862.66
2018-07-17T23:13:31.110Z,97861.11
2018-07-17T23:16:00.044Z,97858.49
2018-07-17T23:18:28.884Z,97858.73
2018-07-17T23:20:57.941Z,97865.85
2018-07-17T23:23:26.929Z,97860.30
2018-07-17T23:25:55.767Z,97860.53
2018-07-17T23:28:24.686Z,97857.55
2018-07-17T23:30:53.599Z,97859.33
2018-07-17T23:33:22.419Z,97860.98
2018-07-17T23:35:51.487Z,97860.20
2018-07-17T23:38:20.234Z,97863.05
2018-07-17T23:40:49.017Z,97858.94
2018-07-17T23:43:17.787Z,97864.15
2018-07-17T23:45:46.669Z,97861.86
2018-07-17T23:48:15.581Z,97860.45
2018-07-17T23:50:44.451Z,97864.58
2018-07-17T23:53:13.302Z,97870.38
2018-07-17T23:55:42.293Z,97867.30
2018-07-17T23:58:11.208Z,97866.64
